Cozumel, México

10:36 AM EDT en Abril 22, 2018 (GMT -0400)
Hotel Grand Velas | | Change Station

Alt 0 ft 20.67 °N, 87.02 °W | Updated 4 minutes ago

Parcialmente nublado
Parcialmente nublado
82.2 ° F
Sensación térmica 89 ° F
N
9.0
Viento Variable Viento desde ESE
Gusts 21.0 mph

Hoy
Alta -- | Baja -- ° F
--% Posibilidad de precipitaciones
Ayer
Alta -- | Baja -- ° F
Precip. -- pul
Presión 30.00 pul
Visibilidad 7.0 Millas
Nubes Muy nublado 1500 ft
Índice de calor 89 ° F
Punto de rocío 76 ° F
Humedad 80%
Precipitaciones 0.00 pul
Espesor de la nieve No disponible.
7:25 AM 8:10 PM
Creciente, 47% visible
METAR MMUN 221349Z 10010KT 7SM BKN015 28/23 A3000 RMK 8/100 ISOL MDT CU
Presión 30.00 pul
Visibilidad 7.0 Millas
Nubes Muy nublado 1500 ft
Índice de calor 89 ° F
Punto de rocío 76 ° F
Humedad 80%
Precipitaciones 0.00 pul
Espesor de la nieve No disponible.
7:25 AM 8:10 PM
Creciente, 47% visible
METAR MMUN 221349Z 10010KT 7SM BKN015 28/23 A3000 RMK 8/100 ISOL MDT CU

Get Severe Weather Alerts

Thanks for signing up!

Be on the lookout for a verification email in your inbox.

You'll start receiving the daily forecast at 6 AM.

×

10-Day Weather Forecast

No radar image for this location.
×

Almanac

Astronomía

Apr. 22, 2018 Salida Puesta
Hora real
Crepúsculo civil
Crepúsculo náutico
Crepúsculo astronómico
Luna
Horas de luz
Horas de luz
Tomorrow will be .
, % of the Moon is Illuminated

Extremos de hoy

Máximos del país Bajas del país

Community

WunderPhotos

Category 6

Welcome to Category 6. This is the collective home for Weather Underground's featured writeups by Dr. Jeff Masters (right), Bob Henson (left), Chris Burt, and other regular contributors.

Nearby

Calidad del aire

  Calidad del aire Índice AQ Contaminante
Not available.

Grosos de nieve

Estación Profundido Altura

Actividad de terremotos

Ciudad Distance Mag. Tiempo y dato
Magnitud mínima muestra es 2,5.

Temperaturas de aguas costeras

Lugar Temperatura

Stations

Estaciones meteorológicas cercanas

Ubicación de la estación Temp. Vientos helados Punto de rocío Humedad Viento Precip. Alt Actualizado Tipo